sensor_id;sensor_type;location;lat;lon;timestamp;temperature;humidity
26623;DHT22;14254;50.968;5.366;2023-05-14T00:00:11;13.80;99.90
26623;DHT22;14254;50.968;5.366;2023-05-14T00:02:37;13.50;99.90
26623;DHT22;14254;50.968;5.366;2023-05-14T00:05:03;13.10;99.90
26623;DHT22;14254;50.968;5.366;2023-05-14T00:07:29;13.00;99.90
26623;DHT22;14254;50.968;5.366;2023-05-14T00:09:58;12.80;99.90
26623;DHT22;14254;50.968;5.366;2023-05-14T00:12:25;12.80;99.90
26623;DHT22;14254;50.968;5.366;2023-05-14T00:14:51;12.90;99.90
26623;DHT22;14254;50.968;5.366;2023-05-14T00:17:17;12.90;99.90
26623;DHT22;14254;50.968;5.366;2023-05-14T00:19:43;12.80;99.90
26623;DHT22;14254;50.968;5.366;2023-05-14T00:22:09;12.80;99.90
26623;DHT22;14254;50.968;5.366;2023-05-14T00:24:35;12.90;99.90
26623;DHT22;14254;50.968;5.366;2023-05-14T00:27:02;12.90;99.90
26623;DHT22;14254;50.968;5.366;2023-05-14T00:29:28;12.80;99.90
26623;DHT22;14254;50.968;5.366;2023-05-14T00:31:54;12.80;99.90
26623;DHT22;14254;50.968;5.366;2023-05-14T00:34:20;12.80;99.90
26623;DHT22;14254;50.968;5.366;2023-05-14T00:36:46;12.80;99.90
26623;DHT22;14254;50.968;5.366;2023-05-14T00:39:12;12.80;99.90
26623;DHT22;14254;50.968;5.366;2023-05-14T00:41:38;12.80;99.90
26623;DHT22;14254;50.968;5.366;2023-05-14T00:44:04;12.70;99.90
26623;DHT22;14254;50.968;5.366;2023-05-14T00:46:29;12.50;99.90
26623;DHT22;14254;50.968;5.366;2023-05-14T00:48:56;12.40;99.90
26623;DHT22;14254;50.968;5.366;2023-05-14T00:51:22;12.50;99.90
26623;DHT22;14254;50.968;5.366;2023-05-14T00:53:48;12.60;99.90
26623;DHT22;14254;50.968;5.366;2023-05-14T00:56:15;12.70;99.90
26623;DHT22;14254;50.968;5.366;2023-05-14T00:58:40;12.80;99.90
26623;DHT22;14254;50.968;5.366;2023-05-14T01:01:06;12.80;99.90
26623;DHT22;14254;50.968;5.366;2023-05-14T01:03:32;12.80;99.90
26623;DHT22;14254;50.968;5.366;2023-05-14T01:11:38;12.60;99.90
26623;DHT22;14254;50.968;5.366;2023-05-14T01:16:58;12.40;99.90
26623;DHT22;14254;50.968;5.366;2023-05-14T01:19:41;12.30;99.90
26623;DHT22;14254;50.968;5.366;2023-05-14T01:22:07;12.20;99.90
26623;DHT22;14254;50.968;5.366;2023-05-14T01:24:32;12.20;99.90
26623;DHT22;14254;50.968;5.366;2023-05-14T01:27:21;12.30;99.90
26623;DHT22;14254;50.968;5.366;2023-05-14T01:29:59;12.40;99.90
26623;DHT22;14254;50.968;5.366;2023-05-14T01:32:28;12.40;99.90
26623;DHT22;14254;50.968;5.366;2023-05-14T01:34:56;12.30;99.90
26623;DHT22;14254;50.968;5.366;2023-05-14T01:37:24;12.20;99.90
26623;DHT22;14254;50.968;5.366;2023-05-14T01:39:51;12.20;99.90
26623;DHT22;14254;50.968;5.366;2023-05-14T01:42:17;12.30;99.90
26623;DHT22;14254;50.968;5.366;2023-05-14T01:44:43;12.30;99.90
26623;DHT22;14254;50.968;5.366;2023-05-14T01:47:09;12.10;99.90
26623;DHT22;14254;50.968;5.366;2023-05-14T01:49:35;12.10;99.90
26623;DHT22;14254;50.968;5.366;2023-05-14T01:52:01;12.10;99.90
26623;DHT22;14254;50.968;5.366;2023-05-14T01:54:27;12.10;99.90
26623;DHT22;14254;50.968;5.366;2023-05-14T01:56:53;12.10;99.90
26623;DHT22;14254;50.968;5.366;2023-05-14T01:59:18;12.00;99.90
26623;DHT22;14254;50.968;5.366;2023-05-14T02:01:44;11.90;99.90
26623;DHT22;14254;50.968;5.366;2023-05-14T02:04:10;11.90;99.90
26623;DHT22;14254;50.968;5.366;2023-05-14T02:06:35;11.70;99.90
26623;DHT22;14254;50.968;5.366;2023-05-14T02:09:01;11.60;99.90
26623;DHT22;14254;50.968;5.366;2023-05-14T02:11:27;11.80;99.90
26623;DHT22;14254;50.968;5.366;2023-05-14T02:13:53;11.60;99.90
26623;DHT22;14254;50.968;5.366;2023-05-14T02:16:18;11.70;99.90
26623;DHT22;14254;50.968;5.366;2023-05-14T02:18:44;11.60;99.90
26623;DHT22;14254;50.968;5.366;2023-05-14T02:21:10;11.70;99.90
26623;DHT22;14254;50.968;5.366;2023-05-14T02:23:35;11.70;99.90
26623;DHT22;14254;50.968;5.366;2023-05-14T02:26:02;11.70;99.90
26623;DHT22;14254;50.968;5.366;2023-05-14T02:28:27;11.70;99.90
26623;DHT22;14254;50.968;5.366;2023-05-14T02:30:58;11.50;99.90
26623;DHT22;14254;50.968;5.366;2023-05-14T02:33:24;11.60;99.90
26623;DHT22;14254;50.968;5.366;2023-05-14T02:35:50;11.60;99.90
26623;DHT22;14254;50.968;5.366;2023-05-14T02:38:15;11.50;99.90
26623;DHT22;14254;50.968;5.366;2023-05-14T02:40:41;11.50;99.90
26623;DHT22;14254;50.968;5.366;2023-05-14T02:43:07;11.50;99.90
26623;DHT22;14254;50.968;5.366;2023-05-14T02:45:32;11.50;99.90
26623;DHT22;14254;50.968;5.366;2023-05-14T02:47:58;11.50;99.90
26623;DHT22;14254;50.968;5.366;2023-05-14T02:50:23;11.40;99.90
26623;DHT22;14254;50.968;5.366;2023-05-14T02:52:49;11.40;99.90
26623;DHT22;14254;50.968;5.366;2023-05-14T02:55:15;11.30;99.90
26623;DHT22;14254;50.968;5.366;2023-05-14T02:57:40;11.30;99.90
26623;DHT22;14254;50.968;5.366;2023-05-14T03:00:06;11.30;99.90
26623;DHT22;14254;50.968;5.366;2023-05-14T03:02:33;11.30;99.90
26623;DHT22;14254;50.968;5.366;2023-05-14T03:05:00;11.20;99.90
26623;DHT22;14254;50.968;5.366;2023-05-14T03:07:26;11.20;99.90
26623;DHT22;14254;50.968;5.366;2023-05-14T03:09:51;11.30;99.90
26623;DHT22;14254;50.968;5.366;2023-05-14T03:12:17;11.30;99.90
26623;DHT22;14254;50.968;5.366;2023-05-14T03:14:43;11.30;99.90
26623;DHT22;14254;50.968;5.366;2023-05-14T03:17:09;11.20;99.90
26623;DHT22;14254;50.968;5.366;2023-05-14T03:19:35;11.10;99.90
26623;DHT22;14254;50.968;5.366;2023-05-14T03:22:00;11.10;99.90
26623;DHT22;14254;50.968;5.366;2023-05-14T03:24:26;11.00;99.90
26623;DHT22;14254;50.968;5.366;2023-05-14T03:26:51;11.00;99.90
26623;DHT22;14254;50.968;5.366;2023-05-14T03:29:17;10.90;99.90
26623;DHT22;14254;50.968;5.366;2023-05-14T03:31:43;10.90;99.90
26623;DHT22;14254;50.968;5.366;2023-05-14T03:34:09;10.90;99.90
26623;DHT22;14254;50.968;5.366;2023-05-14T03:36:35;10.90;99.90
26623;DHT22;14254;50.968;5.366;2023-05-14T03:39:02;10.90;99.90
26623;DHT22;14254;50.968;5.366;2023-05-14T03:41:27;10.90;99.90
26623;DHT22;14254;50.968;5.366;2023-05-14T03:43:53;11.00;99.90
26623;DHT22;14254;50.968;5.366;2023-05-14T03:46:19;11.00;99.90
26623;DHT22;14254;50.968;5.366;2023-05-14T03:48:44;11.10;99.90
26623;DHT22;14254;50.968;5.366;2023-05-14T03:51:10;11.00;99.90
26623;DHT22;14254;50.968;5.366;2023-05-14T03:53:36;11.00;99.90
26623;DHT22;14254;50.968;5.366;2023-05-14T03:56:01;10.90;99.90
26623;DHT22;14254;50.968;5.366;2023-05-14T03:58:27;10.80;99.90
26623;DHT22;14254;50.968;5.366;2023-05-14T04:00:53;10.80;99.90
26623;DHT22;14254;50.968;5.366;2023-05-14T04:03:18;10.80;99.90
26623;DHT22;14254;50.968;5.366;2023-05-14T04:05:44;10.80;99.90
26623;DHT22;14254;50.968;5.366;2023-05-14T04:08:10;10.80;99.90
26623;DHT22;14254;50.968;5.366;2023-05-14T04:10:36;10.90;99.90
26623;DHT22;14254;50.968;5.366;2023-05-14T04:13:01;11.00;99.90
26623;DHT22;14254;50.968;5.366;2023-05-14T04:15:27;11.00;99.90
26623;DHT22;14254;50.968;5.366;2023-05-14T04:17:53;11.10;99.90
26623;DHT22;14254;50.968;5.366;2023-05-14T04:20:18;11.10;99.90
26623;DHT22;14254;50.968;5.366;2023-05-14T04:22:44;11.00;99.90
26623;DHT22;14254;50.968;5.366;2023-05-14T04:25:10;11.00;99.90
26623;DHT22;14254;50.968;5.366;2023-05-14T04:27:35;11.00;99.90
26623;DHT22;14254;50.968;5.366;2023-05-14T04:30:01;11.10;99.90
26623;DHT22;14254;50.968;5.366;2023-05-14T04:32:27;11.20;99.90
26623;DHT22;14254;50.968;5.366;2023-05-14T04:34:53;11.30;99.90
26623;DHT22;14254;50.968;5.366;2023-05-14T04:37:18;11.30;99.90
26623;DHT22;14254;50.968;5.366;2023-05-14T04:39:44;11.30;99.90
26623;DHT22;14254;50.968;5.366;2023-05-14T04:42:09;11.50;99.90
26623;DHT22;14254;50.968;5.366;2023-05-14T04:44:35;11.60;99.90
26623;DHT22;14254;50.968;5.366;2023-05-14T04:47:02;11.70;99.90
26623;DHT22;14254;50.968;5.366;2023-05-14T04:49:28;11.80;99.90
26623;DHT22;14254;50.968;5.366;2023-05-14T04:51:54;11.90;99.90
26623;DHT22;14254;50.968;5.366;2023-05-14T04:54:20;11.90;99.90
26623;DHT22;14254;50.968;5.366;2023-05-14T04:56:46;12.00;99.90
26623;DHT22;14254;50.968;5.366;2023-05-14T04:59:12;12.20;99.90
26623;DHT22;14254;50.968;5.366;2023-05-14T05:01:37;12.20;99.90
26623;DHT22;14254;50.968;5.366;2023-05-14T05:04:03;12.30;99.90
26623;DHT22;14254;50.968;5.366;2023-05-14T05:06:29;12.30;99.90
26623;DHT22;14254;50.968;5.366;2023-05-14T05:08:55;12.40;99.90
26623;DHT22;14254;50.968;5.366;2023-05-14T05:11:21;12.40;99.90
26623;DHT22;14254;50.968;5.366;2023-05-14T05:13:47;12.50;99.90
26623;DHT22;14254;50.968;5.366;2023-05-14T05:16:12;12.60;99.90
26623;DHT22;14254;50.968;5.366;2023-05-14T05:18:38;12.70;99.90
26623;DHT22;14254;50.968;5.366;2023-05-14T05:21:04;12.60;99.90
26623;DHT22;14254;50.968;5.366;2023-05-14T05:23:31;12.70;99.90
26623;DHT22;14254;50.968;5.366;2023-05-14T05:25:56;12.80;99.90
26623;DHT22;14254;50.968;5.366;2023-05-14T05:28:22;12.90;99.90
26623;DHT22;14254;50.968;5.366;2023-05-14T05:30:48;13.00;99.90
26623;DHT22;14254;50.968;5.366;2023-05-14T05:33:13;13.10;99.90
26623;DHT22;14254;50.968;5.366;2023-05-14T05:35:39;12.90;99.90
26623;DHT22;14254;50.968;5.366;2023-05-14T05:38:05;12.90;99.90
26623;DHT22;14254;50.968;5.366;2023-05-14T05:40:31;13.00;99.90
26623;DHT22;14254;50.968;5.366;2023-05-14T05:42:57;13.20;99.90
26623;DHT22;14254;50.968;5.366;2023-05-14T05:45:22;13.30;99.90
26623;DHT22;14254;50.968;5.366;2023-05-14T05:47:48;13.30;99.90
26623;DHT22;14254;50.968;5.366;2023-05-14T05:50:14;13.40;99.90
26623;DHT22;14254;50.968;5.366;2023-05-14T05:52:39;13.50;99.90
26623;DHT22;14254;50.968;5.366;2023-05-14T05:55:05;13.40;99.90
26623;DHT22;14254;50.968;5.366;2023-05-14T05:57:31;13.40;99.90
26623;DHT22;14254;50.968;5.366;2023-05-14T05:59:57;13.30;99.90
26623;DHT22;14254;50.968;5.366;2023-05-14T06:02:22;13.50;99.90
26623;DHT22;14254;50.968;5.366;2023-05-14T06:04:49;13.70;99.90
26623;DHT22;14254;50.968;5.366;2023-05-14T06:07:15;13.70;99.90
26623;DHT22;14254;50.968;5.366;2023-05-14T06:09:40;13.70;99.90
26623;DHT22;14254;50.968;5.366;2023-05-14T06:12:06;13.60;99.90
26623;DHT22;14254;50.968;5.366;2023-05-14T06:14:32;13.50;99.90
26623;DHT22;14254;50.968;5.366;2023-05-14T06:16:58;13.60;99.90
26623;DHT22;14254;50.968;5.366;2023-05-14T06:19:23;13.80;99.90
26623;DHT22;14254;50.968;5.366;2023-05-14T06:21:49;13.80;99.90
26623;DHT22;14254;50.968;5.366;2023-05-14T06:24:15;14.00;99.90
26623;DHT22;14254;50.968;5.366;2023-05-14T06:26:41;14.30;99.90
26623;DHT22;14254;50.968;5.366;2023-05-14T06:29:06;14.40;99.90
26623;DHT22;14254;50.968;5.366;2023-05-14T06:31:32;14.50;99.90
26623;DHT22;14254;50.968;5.366;2023-05-14T06:33:58;14.60;99.90
26623;DHT22;14254;50.968;5.366;2023-05-14T06:36:23;14.80;99.90
26623;DHT22;14254;50.968;5.366;2023-05-14T06:38:49;15.10;99.90
26623;DHT22;14254;50.968;5.366;2023-05-14T06:41:15;15.30;99.90
26623;DHT22;14254;50.968;5.366;2023-05-14T06:43:41;15.40;99.90
26623;DHT22;14254;50.968;5.366;2023-05-14T06:46:07;15.60;99.90
26623;DHT22;14254;50.968;5.366;2023-05-14T06:48:32;15.60;99.90
26623;DHT22;14254;50.968;5.366;2023-05-14T06:50:58;15.50;99.90
26623;DHT22;14254;50.968;5.366;2023-05-14T06:53:24;15.50;99.90
26623;DHT22;14254;50.968;5.366;2023-05-14T06:55:49;15.50;99.90
26623;DHT22;14254;50.968;5.366;2023-05-14T06:58:15;15.10;99.90
26623;DHT22;14254;50.968;5.366;2023-05-14T07:00:41;14.90;99.90
26623;DHT22;14254;50.968;5.366;2023-05-14T07:03:07;14.90;99.90
26623;DHT22;14254;50.968;5.366;2023-05-14T07:05:32;15.10;99.90
26623;DHT22;14254;50.968;5.366;2023-05-14T07:07:58;15.10;99.90
26623;DHT22;14254;50.968;5.366;2023-05-14T07:10:24;15.50;99.90
26623;DHT22;14254;50.968;5.366;2023-05-14T07:12:50;15.80;99.90
26623;DHT22;14254;50.968;5.366;2023-05-14T07:15:15;15.70;99.90
26623;DHT22;14254;50.968;5.366;2023-05-14T07:17:41;15.60;99.90
26623;DHT22;14254;50.968;5.366;2023-05-14T07:20:07;15.90;99.90
26623;DHT22;14254;50.968;5.366;2023-05-14T07:22:33;16.10;99.90
26623;DHT22;14254;50.968;5.366;2023-05-14T07:24:59;16.30;99.90
26623;DHT22;14254;50.968;5.366;2023-05-14T07:27:24;16.80;99.90
26623;DHT22;14254;50.968;5.366;2023-05-14T07:29:50;16.80;99.90
26623;DHT22;14254;50.968;5.366;2023-05-14T07:32:16;17.20;99.90
26623;DHT22;14254;50.968;5.366;2023-05-14T07:34:41;17.70;99.90
26623;DHT22;14254;50.968;5.366;2023-05-14T07:37:07;17.90;99.90
26623;DHT22;14254;50.968;5.366;2023-05-14T07:39:33;18.10;99.90
26623;DHT22;14254;50.968;5.366;2023-05-14T07:42:00;18.20;99.90
26623;DHT22;14254;50.968;5.366;2023-05-14T07:44:25;17.90;99.90
26623;DHT22;14254;50.968;5.366;2023-05-14T07:46:51;17.90;99.90
26623;DHT22;14254;50.968;5.366;2023-05-14T07:49:17;18.10;99.90
26623;DHT22;14254;50.968;5.366;2023-05-14T07:51:42;18.50;99.90
26623;DHT22;14254;50.968;5.366;2023-05-14T07:54:08;18.70;99.90
26623;DHT22;14254;50.968;5.366;2023-05-14T07:56:34;18.80;99.90
26623;DHT22;14254;50.968;5.366;2023-05-14T07:58:59;18.50;99.90
26623;DHT22;14254;50.968;5.366;2023-05-14T08:01:25;18.70;99.90
26623;DHT22;14254;50.968;5.366;2023-05-14T08:03:51;18.60;99.90
26623;DHT22;14254;50.968;5.366;2023-05-14T08:06:17;18.60;99.90
26623;DHT22;14254;50.968;5.366;2023-05-14T08:08:42;18.60;99.90
26623;DHT22;14254;50.968;5.366;2023-05-14T08:11:08;18.70;99.90
26623;DHT22;14254;50.968;5.366;2023-05-14T08:13:34;18.50;99.90
26623;DHT22;14254;50.968;5.366;2023-05-14T08:15:59;18.00;99.90
26623;DHT22;14254;50.968;5.366;2023-05-14T08:18:25;17.70;99.90
26623;DHT22;14254;50.968;5.366;2023-05-14T08:20:51;18.00;99.90
26623;DHT22;14254;50.968;5.366;2023-05-14T08:23:17;18.30;99.90
26623;DHT22;14254;50.968;5.366;2023-05-14T08:25:43;18.20;99.90
26623;DHT22;14254;50.968;5.366;2023-05-14T08:28:08;18.20;99.90
26623;DHT22;14254;50.968;5.366;2023-05-14T08:30:34;18.40;99.90
26623;DHT22;14254;50.968;5.366;2023-05-14T08:33:00;18.50;99.90
26623;DHT22;14254;50.968;5.366;2023-05-14T08:35:26;18.40;99.90
26623;DHT22;14254;50.968;5.366;2023-05-14T08:37:51;18.20;99.90
26623;DHT22;14254;50.968;5.366;2023-05-14T08:40:17;18.00;99.90
26623;DHT22;14254;50.968;5.366;2023-05-14T08:42:43;18.30;99.90
26623;DHT22;14254;50.968;5.366;2023-05-14T08:45:23;18.40;99.90
26623;DHT22;14254;50.968;5.366;2023-05-14T08:47:51;18.50;99.90
26623;DHT22;14254;50.968;5.366;2023-05-14T08:50:17;18.10;99.90
26623;DHT22;14254;50.968;5.366;2023-05-14T08:52:44;18.00;99.90
26623;DHT22;14254;50.968;5.366;2023-05-14T08:55:11;17.90;99.90
26623;DHT22;14254;50.968;5.366;2023-05-14T08:57:37;18.30;99.90
26623;DHT22;14254;50.968;5.366;2023-05-14T09:00:03;18.20;99.90
26623;DHT22;14254;50.968;5.366;2023-05-14T09:02:33;18.20;99.90
26623;DHT22;14254;50.968;5.366;2023-05-14T09:04:59;18.40;99.90
26623;DHT22;14254;50.968;5.366;2023-05-14T09:07:26;18.70;99.90
26623;DHT22;14254;50.968;5.366;2023-05-14T09:09:52;18.90;99.90
26623;DHT22;14254;50.968;5.366;2023-05-14T09:12:18;18.90;99.90
26623;DHT22;14254;50.968;5.366;2023-05-14T09:14:44;19.00;99.90
26623;DHT22;14254;50.968;5.366;2023-05-14T09:17:10;19.10;99.90
26623;DHT22;14254;50.968;5.366;2023-05-14T09:19:41;19.40;99.90
26623;DHT22;14254;50.968;5.366;2023-05-14T09:22:10;19.30;99.90
26623;DHT22;14254;50.968;5.366;2023-05-14T09:24:36;19.40;99.90
26623;DHT22;14254;50.968;5.366;2023-05-14T09:27:03;19.60;99.90
26623;DHT22;14254;50.968;5.366;2023-05-14T09:29:30;19.70;99.90
26623;DHT22;14254;50.968;5.366;2023-05-14T09:31:57;19.40;99.90
26623;DHT22;14254;50.968;5.366;2023-05-14T09:34:24;19.30;99.90
26623;DHT22;14254;50.968;5.366;2023-05-14T09:36:56;19.40;99.90
26623;DHT22;14254;50.968;5.366;2023-05-14T09:39:22;19.60;99.90
26623;DHT22;14254;50.968;5.366;2023-05-14T09:41:49;19.90;99.90
26623;DHT22;14254;50.968;5.366;2023-05-14T09:44:16;20.20;99.90
26623;DHT22;14254;50.968;5.366;2023-05-14T09:46:42;20.30;99.90
26623;DHT22;14254;50.968;5.366;2023-05-14T09:49:08;20.20;99.90
26623;DHT22;14254;50.968;5.366;2023-05-14T09:51:38;20.00;99.90
26623;DHT22;14254;50.968;5.366;2023-05-14T09:54:04;19.80;99.90
26623;DHT22;14254;50.968;5.366;2023-05-14T09:56:32;19.70;99.90
26623;DHT22;14254;50.968;5.366;2023-05-14T09:58:58;19.90;99.90
26623;DHT22;14254;50.968;5.366;2023-05-14T10:01:24;20.40;99.90
26623;DHT22;14254;50.968;5.366;2023-05-14T10:03:50;20.70;99.90
26623;DHT22;14254;50.968;5.366;2023-05-14T10:06:18;20.70;99.90
26623;DHT22;14254;50.968;5.366;2023-05-14T10:08:47;20.80;99.90
26623;DHT22;14254;50.968;5.366;2023-05-14T10:11:35;20.80;99.90
26623;DHT22;14254;50.968;5.366;2023-05-14T10:14:12;21.00;99.90
26623;DHT22;14254;50.968;5.366;2023-05-14T10:16:52;21.10;99.90
26623;DHT22;14254;50.968;5.366;2023-05-14T10:19:19;20.90;99.90
26623;DHT22;14254;50.968;5.366;2023-05-14T10:21:55;20.70;99.90
26623;DHT22;14254;50.968;5.366;2023-05-14T10:24:21;20.70;99.90
26623;DHT22;14254;50.968;5.366;2023-05-14T10:26:47;20.90;99.90
26623;DHT22;14254;50.968;5.366;2023-05-14T10:29:13;21.00;99.90
26623;DHT22;14254;50.968;5.366;2023-05-14T10:31:52;21.40;99.90
26623;DHT22;14254;50.968;5.366;2023-05-14T10:37:11;21.20;99.90
26623;DHT22;14254;50.968;5.366;2023-05-14T10:39:52;21.00;99.90
26623;DHT22;14254;50.968;5.366;2023-05-14T10:42:19;21.20;99.90
26623;DHT22;14254;50.968;5.366;2023-05-14T10:44:55;21.20;99.90
26623;DHT22;14254;50.968;5.366;2023-05-14T10:47:24;21.40;99.90
26623;DHT22;14254;50.968;5.366;2023-05-14T10:49:56;21.50;99.90
26623;DHT22;14254;50.968;5.366;2023-05-14T10:52:23;21.80;99.90
26623;DHT22;14254;50.968;5.366;2023-05-14T10:57:21;22.30;99.90
26623;DHT22;14254;50.968;5.366;2023-05-14T10:59:54;22.80;99.90
26623;DHT22;14254;50.968;5.366;2023-05-14T11:07:28;22.80;99.90
26623;DHT22;14254;50.968;5.366;2023-05-14T11:10:18;23.30;99.90
26623;DHT22;14254;50.968;5.366;2023-05-14T11:12:46;23.60;99.90
26623;DHT22;14254;50.968;5.366;2023-05-14T11:15:16;23.50;99.90
26623;DHT22;14254;50.968;5.366;2023-05-14T11:17:43;23.60;99.90
26623;DHT22;14254;50.968;5.366;2023-05-14T11:20:11;23.70;99.90
26623;DHT22;14254;50.968;5.366;2023-05-14T11:22:38;23.70;99.90
26623;DHT22;14254;50.968;5.366;2023-05-14T11:25:05;24.00;99.90
26623;DHT22;14254;50.968;5.366;2023-05-14T11:27:33;24.30;99.90
26623;DHT22;14254;50.968;5.366;2023-05-14T11:30:00;24.50;99.90
26623;DHT22;14254;50.968;5.366;2023-05-14T11:32:26;24.40;99.90
26623;DHT22;14254;50.968;5.366;2023-05-14T11:34:52;23.80;99.90
26623;DHT22;14254;50.968;5.366;2023-05-14T11:37:18;23.40;99.90
26623;DHT22;14254;50.968;5.366;2023-05-14T11:39:54;24.90;99.40
26623;DHT22;14254;50.968;5.366;2023-05-14T11:42:21;28.30;94.60
26623;DHT22;14254;50.968;5.366;2023-05-14T11:44:49;27.90;93.90
26623;DHT22;14254;50.968;5.366;2023-05-14T11:47:17;27.30;94.00
26623;DHT22;14254;50.968;5.366;2023-05-14T11:49:43;27.30;92.70
26623;DHT22;14254;50.968;5.366;2023-05-14T11:52:10;27.40;92.00
26623;DHT22;14254;50.968;5.366;2023-05-14T11:54:37;27.20;92.00
26623;DHT22;14254;50.968;5.366;2023-05-14T11:57:14;28.50;91.00
26623;DHT22;14254;50.968;5.366;2023-05-14T11:59:40;31.00;85.70
26623;DHT22;14254;50.968;5.366;2023-05-14T12:02:14;31.10;80.80
26623;DHT22;14254;50.968;5.366;2023-05-14T12:04:42;30.90;78.50
26623;DHT22;14254;50.968;5.366;2023-05-14T12:07:12;29.80;80.50
26623;DHT22;14254;50.968;5.366;2023-05-14T12:09:40;30.10;81.10
26623;DHT22;14254;50.968;5.366;2023-05-14T12:12:10;27.20;82.20
26623;DHT22;14254;50.968;5.366;2023-05-14T12:14:37;26.50;88.10
26623;DHT22;14254;50.968;5.366;2023-05-14T12:17:11;26.50;87.20
26623;DHT22;14254;50.968;5.366;2023-05-14T12:19:39;26.10;89.30
26623;DHT22;14254;50.968;5.366;2023-05-14T12:22:07;25.90;88.20
26623;DHT22;14254;50.968;5.366;2023-05-14T12:24:33;25.50;90.00
26623;DHT22;14254;50.968;5.366;2023-05-14T12:27:00;24.50;91.90
26623;DHT22;14254;50.968;5.366;2023-05-14T12:29:26;23.50;94.40
26623;DHT22;14254;50.968;5.366;2023-05-14T12:31:52;23.30;95.70
26623;DHT22;14254;50.968;5.366;2023-05-14T12:34:18;23.30;96.60
26623;DHT22;14254;50.968;5.366;2023-05-14T12:36:44;26.20;92.20
26623;DHT22;14254;50.968;5.366;2023-05-14T12:39:10;29.20;88.60
26623;DHT22;14254;50.968;5.366;2023-05-14T12:41:36;30.50;81.60
26623;DHT22;14254;50.968;5.366;2023-05-14T12:44:03;32.30;77.40
26623;DHT22;14254;50.968;5.366;2023-05-14T12:46:29;31.30;78.60
26623;DHT22;14254;50.968;5.366;2023-05-14T12:48:56;32.00;77.30
26623;DHT22;14254;50.968;5.366;2023-05-14T12:51:22;33.10;75.60
26623;DHT22;14254;50.968;5.366;2023-05-14T12:53:48;33.30;71.10
26623;DHT22;14254;50.968;5.366;2023-05-14T12:56:13;32.20;72.80
26623;DHT22;14254;50.968;5.366;2023-05-14T12:58:39;32.10;72.00
26623;DHT22;14254;50.968;5.366;2023-05-14T13:01:05;33.70;68.20
26623;DHT22;14254;50.968;5.366;2023-05-14T13:03:31;32.40;68.70
26623;DHT22;14254;50.968;5.366;2023-05-14T13:05:57;31.30;72.30
26623;DHT22;14254;50.968;5.366;2023-05-14T13:08:23;29.80;74.30
26623;DHT22;14254;50.968;5.366;2023-05-14T13:10:55;28.50;74.70
26623;DHT22;14254;50.968;5.366;2023-05-14T13:13:21;27.50;78.20
26623;DHT22;14254;50.968;5.366;2023-05-14T13:15:48;27.00;78.80
26623;DHT22;14254;50.968;5.366;2023-05-14T13:18:14;26.30;81.10
26623;DHT22;14254;50.968;5.366;2023-05-14T13:20:41;25.20;86.30
26623;DHT22;14254;50.968;5.366;2023-05-14T13:23:06;24.70;88.90
26623;DHT22;14254;50.968;5.366;2023-05-14T13:25:32;24.10;90.80
26623;DHT22;14254;50.968;5.366;2023-05-14T13:27:58;24.10;91.80
26623;DHT22;14254;50.968;5.366;2023-05-14T13:30:24;23.70;91.90
26623;DHT22;14254;50.968;5.366;2023-05-14T13:32:50;23.20;92.30
26623;DHT22;14254;50.968;5.366;2023-05-14T13:35:16;23.70;93.40
26623;DHT22;14254;50.968;5.366;2023-05-14T13:37:45;24.40;90.60
26623;DHT22;14254;50.968;5.366;2023-05-14T13:40:11;26.40;88.10
26623;DHT22;14254;50.968;5.366;2023-05-14T13:42:37;28.40;86.20
26623;DHT22;14254;50.968;5.366;2023-05-14T13:45:05;31.40;78.60
26623;DHT22;14254;50.968;5.366;2023-05-14T13:47:31;33.20;68.80
26623;DHT22;14254;50.968;5.366;2023-05-14T13:49:57;34.70;64.50
26623;DHT22;14254;50.968;5.366;2023-05-14T13:52:23;33.00;63.30
26623;DHT22;14254;50.968;5.366;2023-05-14T13:54:49;33.90;66.00
26623;DHT22;14254;50.968;5.366;2023-05-14T13:57:14;34.50;61.80
26623;DHT22;14254;50.968;5.366;2023-05-14T13:59:40;35.20;61.30
26623;DHT22;14254;50.968;5.366;2023-05-14T14:02:07;34.80;61.20
26623;DHT22;14254;50.968;5.366;2023-05-14T14:04:32;36.20;58.00
26623;DHT22;14254;50.968;5.366;2023-05-14T14:06:58;34.80;58.10
26623;DHT22;14254;50.968;5.366;2023-05-14T14:09:24;32.70;60.60
26623;DHT22;14254;50.968;5.366;2023-05-14T14:11:50;31.80;63.00
26623;DHT22;14254;50.968;5.366;2023-05-14T14:14:16;31.80;62.40
26623;DHT22;14254;50.968;5.366;2023-05-14T14:16:42;32.40;62.60
26623;DHT22;14254;50.968;5.366;2023-05-14T14:19:08;32.70;62.50
26623;DHT22;14254;50.968;5.366;2023-05-14T14:21:34;33.70;59.40
26623;DHT22;14254;50.968;5.366;2023-05-14T14:24:02;32.60;63.40
26623;DHT22;14254;50.968;5.366;2023-05-14T14:26:27;31.50;62.70
26623;DHT22;14254;50.968;5.366;2023-05-14T14:28:53;30.30;65.20
26623;DHT22;14254;50.968;5.366;2023-05-14T14:31:19;30.70;68.00
26623;DHT22;14254;50.968;5.366;2023-05-14T14:33:46;31.30;68.20
26623;DHT22;14254;50.968;5.366;2023-05-14T14:36:11;31.50;64.80
26623;DHT22;14254;50.968;5.366;2023-05-14T14:38:37;31.80;64.30
26623;DHT22;14254;50.968;5.366;2023-05-14T14:41:05;31.60;64.80
26623;DHT22;14254;50.968;5.366;2023-05-14T14:43:33;32.00;64.10
26623;DHT22;14254;50.968;5.366;2023-05-14T14:45:58;32.60;64.50
26623;DHT22;14254;50.968;5.366;2023-05-14T14:48:29;32.50;60.20
26623;DHT22;14254;50.968;5.366;2023-05-14T14:50:56;32.50;59.60
26623;DHT22;14254;50.968;5.366;2023-05-14T14:53:22;31.30;62.40
26623;DHT22;14254;50.968;5.366;2023-05-14T14:55:49;31.50;64.00
26623;DHT22;14254;50.968;5.366;2023-05-14T14:58:16;31.00;63.60
26623;DHT22;14254;50.968;5.366;2023-05-14T15:00:42;28.90;66.60
26623;DHT22;14254;50.968;5.366;2023-05-14T15:03:08;29.00;67.90
26623;DHT22;14254;50.968;5.366;2023-05-14T15:05:34;29.90;66.80
26623;DHT22;14254;50.968;5.366;2023-05-14T15:08:00;30.20;66.40
26623;DHT22;14254;50.968;5.366;2023-05-14T15:10:30;29.90;64.80
26623;DHT22;14254;50.968;5.366;2023-05-14T15:12:57;29.50;65.90
26623;DHT22;14254;50.968;5.366;2023-05-14T15:15:23;28.60;68.40
26623;DHT22;14254;50.968;5.366;2023-05-14T15:17:49;29.40;66.90
26623;DHT22;14254;50.968;5.366;2023-05-14T15:20:15;28.50;68.40
26623;DHT22;14254;50.968;5.366;2023-05-14T15:22:41;27.90;70.20
26623;DHT22;14254;50.968;5.366;2023-05-14T15:25:07;27.10;70.70
26623;DHT22;14254;50.968;5.366;2023-05-14T15:27:33;27.30;72.10
26623;DHT22;14254;50.968;5.366;2023-05-14T15:29:59;27.40;70.70
26623;DHT22;14254;50.968;5.366;2023-05-14T15:32:25;27.60;71.00
26623;DHT22;14254;50.968;5.366;2023-05-14T15:34:55;27.60;69.80
26623;DHT22;14254;50.968;5.366;2023-05-14T15:37:22;27.30;69.00
26623;DHT22;14254;50.968;5.366;2023-05-14T15:39:48;26.10;72.20
26623;DHT22;14254;50.968;5.366;2023-05-14T15:42:14;25.70;74.90
26623;DHT22;14254;50.968;5.366;2023-05-14T15:44:40;25.20;73.20